sensor_id;sensor_type;location;lat;lon;timestamp;pressure;altitude;pressure_sealevel;temperature;humidity
73103;BME280;61294;65.988;29.172;2024-01-30T00:01:55;97191.03;;;-2.24;100.00
73103;BME280;61294;65.988;29.172;2024-01-30T00:04:21;97186.75;;;-2.24;100.00
73103;BME280;61294;65.988;29.172;2024-01-30T00:06:46;97190.16;;;-2.27;100.00
73103;BME280;61294;65.988;29.172;2024-01-30T00:09:12;97198.50;;;-2.37;100.00
73103;BME280;61294;65.988;29.172;2024-01-30T00:11:38;97198.13;;;-2.16;100.00
73103;BME280;61294;65.988;29.172;2024-01-30T00:14:04;97181.53;;;-2.27;100.00
73103;BME280;61294;65.988;29.172;2024-01-30T00:16:30;97202.34;;;-2.19;100.00
73103;BME280;61294;65.988;29.172;2024-01-30T00:18:56;97192.72;;;-2.27;100.00
73103;BME280;61294;65.988;29.172;2024-01-30T00:21:22;97208.38;;;-2.19;100.00
73103;BME280;61294;65.988;29.172;2024-01-30T00:23:48;97182.22;;;-2.34;100.00
73103;BME280;61294;65.988;29.172;2024-01-30T00:26:14;97223.06;;;-2.16;100.00
73103;BME280;61294;65.988;29.172;2024-01-30T00:28:43;97217.09;;;-2.14;100.00
73103;BME280;61294;65.988;29.172;2024-01-30T00:31:09;97197.09;;;-2.22;100.00
73103;BME280;61294;65.988;29.172;2024-01-30T00:33:41;97214.19;;;-2.28;100.00
73103;BME280;61294;65.988;29.172;2024-01-30T00:36:08;97219.50;;;-2.20;100.00
73103;BME280;61294;65.988;29.172;2024-01-30T00:38:34;97211.78;;;-2.20;100.00
73103;BME280;61294;65.988;29.172;2024-01-30T00:41:01;97215.28;;;-2.18;100.00
73103;BME280;61294;65.988;29.172;2024-01-30T00:43:29;97222.25;;;-2.14;100.00
73103;BME280;61294;65.988;29.172;2024-01-30T00:45:56;97224.03;;;-2.10;100.00
73103;BME280;61294;65.988;29.172;2024-01-30T00:48:23;97221.41;;;-2.11;100.00
73103;BME280;61294;65.988;29.172;2024-01-30T00:50:49;97227.56;;;-2.06;100.00
73103;BME280;61294;65.988;29.172;2024-01-30T00:53:15;97238.91;;;-1.99;100.00
73103;BME280;61294;65.988;29.172;2024-01-30T00:55:40;97186.25;;;-2.08;100.00
73103;BME280;61294;65.988;29.172;2024-01-30T00:58:06;97215.78;;;-1.95;100.00
73103;BME280;61294;65.988;29.172;2024-01-30T01:00:32;97219.06;;;-2.02;100.00
73103;BME280;61294;65.988;29.172;2024-01-30T01:02:59;97196.50;;;-2.11;100.00
73103;BME280;61294;65.988;29.172;2024-01-30T01:05:25;97238.13;;;-1.95;100.00
73103;BME280;61294;65.988;29.172;2024-01-30T01:07:52;97217.50;;;-1.95;100.00
73103;BME280;61294;65.988;29.172;2024-01-30T01:10:18;97213.19;;;-1.95;100.00
73103;BME280;61294;65.988;29.172;2024-01-30T01:12:44;97238.34;;;-1.84;100.00
73103;BME280;61294;65.988;29.172;2024-01-30T01:15:19;97207.31;;;-1.87;100.00
73103;BME280;61294;65.988;29.172;2024-01-30T01:17:45;97225.28;;;-1.92;100.00
73103;BME280;61294;65.988;29.172;2024-01-30T01:20:19;97235.31;;;-2.06;100.00
73103;BME280;61294;65.988;29.172;2024-01-30T01:22:45;97245.59;;;-2.08;100.00
73103;BME280;61294;65.988;29.172;2024-01-30T01:25:10;97229.00;;;-2.19;100.00
73103;BME280;61294;65.988;29.172;2024-01-30T01:27:36;97261.09;;;-2.08;100.00
73103;BME280;61294;65.988;29.172;2024-01-30T01:30:09;97246.25;;;-2.18;100.00
73103;BME280;61294;65.988;29.172;2024-01-30T01:32:36;97281.50;;;-1.79;100.00
73103;BME280;61294;65.988;29.172;2024-01-30T01:35:02;97303.97;;;-1.75;100.00
73103;BME280;61294;65.988;29.172;2024-01-30T01:37:31;97277.91;;;-1.85;100.00
73103;BME280;61294;65.988;29.172;2024-01-30T01:39:57;97293.47;;;-1.82;100.00
73103;BME280;61294;65.988;29.172;2024-01-30T01:42:22;97287.53;;;-1.78;100.00
73103;BME280;61294;65.988;29.172;2024-01-30T01:44:48;97313.63;;;-1.66;100.00
73103;BME280;61294;65.988;29.172;2024-01-30T01:47:15;97309.41;;;-1.62;100.00
73103;BME280;61294;65.988;29.172;2024-01-30T01:49:41;97298.13;;;-1.66;100.00
73103;BME280;61294;65.988;29.172;2024-01-30T01:52:07;97328.47;;;-1.56;100.00
73103;BME280;61294;65.988;29.172;2024-01-30T01:54:33;97352.66;;;-1.52;100.00
73103;BME280;61294;65.988;29.172;2024-01-30T01:56:59;97338.88;;;-1.52;100.00
73103;BME280;61294;65.988;29.172;2024-01-30T01:59:25;97327.59;;;-1.56;100.00
73103;BME280;61294;65.988;29.172;2024-01-30T02:01:52;97309.09;;;-1.76;100.00
73103;BME280;61294;65.988;29.172;2024-01-30T02:04:19;97339.63;;;-1.58;100.00
73103;BME280;61294;65.988;29.172;2024-01-30T02:06:44;97319.47;;;-1.75;100.00
73103;BME280;61294;65.988;29.172;2024-01-30T02:09:10;97319.53;;;-1.70;100.00
73103;BME280;61294;65.988;29.172;2024-01-30T02:11:36;97342.53;;;-1.82;100.00
73103;BME280;61294;65.988;29.172;2024-01-30T02:14:03;97337.13;;;-1.92;100.00
73103;BME280;61294;65.988;29.172;2024-01-30T02:16:29;97322.78;;;-1.80;100.00
73103;BME280;61294;65.988;29.172;2024-01-30T02:18:55;97364.91;;;-1.81;100.00
73103;BME280;61294;65.988;29.172;2024-01-30T02:21:21;97336.25;;;-1.94;100.00
73103;BME280;61294;65.988;29.172;2024-01-30T02:23:47;97343.75;;;-2.03;100.00
73103;BME280;61294;65.988;29.172;2024-01-30T02:26:14;97350.84;;;-1.94;100.00
73103;BME280;61294;65.988;29.172;2024-01-30T02:28:40;97362.91;;;-1.93;100.00
73103;BME280;61294;65.988;29.172;2024-01-30T02:31:06;97377.56;;;-1.92;100.00
73103;BME280;61294;65.988;29.172;2024-01-30T02:33:31;97382.53;;;-2.00;100.00
73103;BME280;61294;65.988;29.172;2024-01-30T02:35:58;97345.28;;;-2.11;100.00
73103;BME280;61294;65.988;29.172;2024-01-30T02:38:24;97396.81;;;-1.79;100.00
73103;BME280;61294;65.988;29.172;2024-01-30T02:40:52;97388.91;;;-1.85;100.00
73103;BME280;61294;65.988;29.172;2024-01-30T02:43:18;97418.22;;;-1.83;100.00
73103;BME280;61294;65.988;29.172;2024-01-30T02:45:44;97431.09;;;-1.85;100.00
73103;BME280;61294;65.988;29.172;2024-01-30T02:48:09;97413.72;;;-1.92;100.00
73103;BME280;61294;65.988;29.172;2024-01-30T02:50:35;97419.16;;;-1.80;100.00
73103;BME280;61294;65.988;29.172;2024-01-30T02:53:01;97404.88;;;-2.02;100.00
73103;BME280;61294;65.988;29.172;2024-01-30T02:55:27;97443.16;;;-1.84;100.00
73103;BME280;61294;65.988;29.172;2024-01-30T02:57:53;97457.72;;;-1.86;100.00
73103;BME280;61294;65.988;29.172;2024-01-30T03:00:19;97463.72;;;-1.87;100.00
73103;BME280;61294;65.988;29.172;2024-01-30T03:02:45;97420.97;;;-2.12;100.00
73103;BME280;61294;65.988;29.172;2024-01-30T03:05:11;97433.97;;;-2.08;100.00
73103;BME280;61294;65.988;29.172;2024-01-30T03:07:37;97447.59;;;-2.13;100.00
73103;BME280;61294;65.988;29.172;2024-01-30T03:10:06;97456.09;;;-2.16;100.00
73103;BME280;61294;65.988;29.172;2024-01-30T03:12:32;97487.28;;;-2.08;100.00
73103;BME280;61294;65.988;29.172;2024-01-30T03:14:58;97490.72;;;-2.08;100.00
73103;BME280;61294;65.988;29.172;2024-01-30T03:17:24;97508.91;;;-2.03;100.00
73103;BME280;61294;65.988;29.172;2024-01-30T03:19:50;97508.66;;;-2.14;100.00
73103;BME280;61294;65.988;29.172;2024-01-30T03:22:16;97508.03;;;-2.03;100.00
73103;BME280;61294;65.988;29.172;2024-01-30T03:24:41;97523.47;;;-2.06;100.00
73103;BME280;61294;65.988;29.172;2024-01-30T03:27:08;97517.78;;;-2.25;100.00
73103;BME280;61294;65.988;29.172;2024-01-30T03:29:34;97522.19;;;-2.21;100.00
73103;BME280;61294;65.988;29.172;2024-01-30T03:31:59;97510.72;;;-2.32;100.00
73103;BME280;61294;65.988;29.172;2024-01-30T03:34:25;97539.28;;;-2.24;100.00
73103;BME280;61294;65.988;29.172;2024-01-30T03:36:51;97541.13;;;-2.20;100.00
73103;BME280;61294;65.988;29.172;2024-01-30T03:39:17;97542.78;;;-2.22;100.00
73103;BME280;61294;65.988;29.172;2024-01-30T03:41:43;97547.81;;;-2.27;100.00
73103;BME280;61294;65.988;29.172;2024-01-30T03:44:10;97525.13;;;-2.39;100.00
73103;BME280;61294;65.988;29.172;2024-01-30T03:46:36;97534.84;;;-2.30;100.00
73103;BME280;61294;65.988;29.172;2024-01-30T03:49:02;97559.13;;;-2.23;100.00
73103;BME280;61294;65.988;29.172;2024-01-30T03:51:28;97513.59;;;-2.52;100.00
73103;BME280;61294;65.988;29.172;2024-01-30T03:53:54;97553.47;;;-2.40;100.00
73103;BME280;61294;65.988;29.172;2024-01-30T03:56:20;97540.22;;;-2.53;100.00
73103;BME280;61294;65.988;29.172;2024-01-30T03:58:46;97542.88;;;-2.50;100.00
73103;BME280;61294;65.988;29.172;2024-01-30T04:01:14;97555.03;;;-2.46;100.00
73103;BME280;61294;65.988;29.172;2024-01-30T04:03:41;97588.09;;;-2.32;100.00
73103;BME280;61294;65.988;29.172;2024-01-30T04:06:07;97599.94;;;-2.39;100.00
73103;BME280;61294;65.988;29.172;2024-01-30T04:08:33;97600.53;;;-2.48;100.00
73103;BME280;61294;65.988;29.172;2024-01-30T04:10:59;97589.94;;;-2.57;100.00
73103;BME280;61294;65.988;29.172;2024-01-30T04:13:28;97619.97;;;-2.59;100.00
73103;BME280;61294;65.988;29.172;2024-01-30T04:15:54;97619.97;;;-2.59;100.00
73103;BME280;61294;65.988;29.172;2024-01-30T04:18:20;97616.41;;;-2.63;100.00
73103;BME280;61294;65.988;29.172;2024-01-30T04:20:46;97606.84;;;-2.67;100.00
73103;BME280;61294;65.988;29.172;2024-01-30T04:23:12;97621.53;;;-2.64;100.00
73103;BME280;61294;65.988;29.172;2024-01-30T04:25:38;97645.03;;;-2.55;100.00
73103;BME280;61294;65.988;29.172;2024-01-30T04:28:04;97617.56;;;-2.82;100.00
73103;BME280;61294;65.988;29.172;2024-01-30T04:30:29;97649.75;;;-2.69;100.00
73103;BME280;61294;65.988;29.172;2024-01-30T04:32:55;97654.09;;;-2.68;100.00
73103;BME280;61294;65.988;29.172;2024-01-30T04:35:21;97647.34;;;-2.63;100.00
73103;BME280;61294;65.988;29.172;2024-01-30T04:37:52;97662.00;;;-2.62;100.00
73103;BME280;61294;65.988;29.172;2024-01-30T04:40:18;97653.81;;;-2.75;100.00
73103;BME280;61294;65.988;29.172;2024-01-30T04:42:44;97668.63;;;-2.70;100.00
73103;BME280;61294;65.988;29.172;2024-01-30T04:45:11;97679.56;;;-2.77;100.00
73103;BME280;61294;65.988;29.172;2024-01-30T04:47:37;97662.78;;;-2.91;100.00
73103;BME280;61294;65.988;29.172;2024-01-30T04:50:07;97670.56;;;-2.90;100.00
73103;BME280;61294;65.988;29.172;2024-01-30T04:52:34;97682.13;;;-2.77;100.00
73103;BME280;61294;65.988;29.172;2024-01-30T04:55:00;97693.91;;;-2.85;100.00
73103;BME280;61294;65.988;29.172;2024-01-30T04:57:26;97671.28;;;-2.94;100.00
73103;BME280;61294;65.988;29.172;2024-01-30T04:59:51;97703.44;;;-2.83;100.00
73103;BME280;61294;65.988;29.172;2024-01-30T05:02:17;97709.25;;;-2.88;100.00
73103;BME280;61294;65.988;29.172;2024-01-30T05:04:43;97691.28;;;-3.13;100.00
73103;BME280;61294;65.988;29.172;2024-01-30T05:07:09;97716.28;;;-3.10;100.00
73103;BME280;61294;65.988;29.172;2024-01-30T05:09:34;97703.19;;;-3.16;100.00
73103;BME280;61294;65.988;29.172;2024-01-30T05:12:00;97700.81;;;-3.10;100.00
73103;BME280;61294;65.988;29.172;2024-01-30T05:14:26;97731.97;;;-3.02;100.00
73103;BME280;61294;65.988;29.172;2024-01-30T05:16:52;97736.94;;;-3.08;100.00
73103;BME280;61294;65.988;29.172;2024-01-30T05:19:18;97735.03;;;-3.14;100.00
73103;BME280;61294;65.988;29.172;2024-01-30T05:21:44;97732.78;;;-3.05;100.00
73103;BME280;61294;65.988;29.172;2024-01-30T05:24:10;97746.16;;;-3.15;100.00
73103;BME280;61294;65.988;29.172;2024-01-30T05:26:36;97744.19;;;-3.22;100.00
73103;BME280;61294;65.988;29.172;2024-01-30T05:29:02;97751.84;;;-3.24;100.00
73103;BME280;61294;65.988;29.172;2024-01-30T05:31:28;97741.06;;;-3.38;100.00
73103;BME280;61294;65.988;29.172;2024-01-30T05:33:54;97734.00;;;-3.43;100.00
73103;BME280;61294;65.988;29.172;2024-01-30T05:36:20;97761.63;;;-3.39;100.00
73103;BME280;61294;65.988;29.172;2024-01-30T05:38:47;97765.09;;;-3.39;100.00
73103;BME280;61294;65.988;29.172;2024-01-30T05:41:13;97767.16;;;-3.28;100.00
73103;BME280;61294;65.988;29.172;2024-01-30T05:43:38;97778.16;;;-3.33;100.00
73103;BME280;61294;65.988;29.172;2024-01-30T05:46:04;97783.81;;;-3.43;100.00
73103;BME280;61294;65.988;29.172;2024-01-30T05:48:30;97758.81;;;-3.45;100.00
73103;BME280;61294;65.988;29.172;2024-01-30T05:50:56;97770.13;;;-3.42;100.00
73103;BME280;61294;65.988;29.172;2024-01-30T05:53:22;97783.00;;;-3.42;100.00
73103;BME280;61294;65.988;29.172;2024-01-30T05:55:47;97772.81;;;-3.39;100.00
73103;BME280;61294;65.988;29.172;2024-01-30T05:58:13;97777.25;;;-3.35;100.00
73103;BME280;61294;65.988;29.172;2024-01-30T06:00:39;97786.75;;;-3.32;100.00
73103;BME280;61294;65.988;29.172;2024-01-30T06:03:05;97795.50;;;-3.28;100.00
73103;BME280;61294;65.988;29.172;2024-01-30T06:05:30;97783.53;;;-3.26;100.00
73103;BME280;61294;65.988;29.172;2024-01-30T06:07:56;97815.38;;;-3.24;100.00
73103;BME280;61294;65.988;29.172;2024-01-30T06:10:22;97797.06;;;-3.32;100.00
73103;BME280;61294;65.988;29.172;2024-01-30T06:12:48;97788.22;;;-3.40;100.00
73103;BME280;61294;65.988;29.172;2024-01-30T06:15:13;97809.03;;;-3.34;100.00
73103;BME280;61294;65.988;29.172;2024-01-30T06:17:39;97834.94;;;-3.30;100.00
73103;BME280;61294;65.988;29.172;2024-01-30T06:20:06;97833.84;;;-3.36;100.00
73103;BME280;61294;65.988;29.172;2024-01-30T06:22:32;97823.56;;;-3.36;100.00
73103;BME280;61294;65.988;29.172;2024-01-30T06:24:58;97836.44;;;-3.36;100.00
73103;BME280;61294;65.988;29.172;2024-01-30T06:27:23;97844.88;;;-3.40;100.00
73103;BME280;61294;65.988;29.172;2024-01-30T06:29:49;97838.91;;;-3.38;100.00
73103;BME280;61294;65.988;29.172;2024-01-30T06:32:15;97833.00;;;-3.35;100.00
73103;BME280;61294;65.988;29.172;2024-01-30T06:34:41;97853.66;;;-3.34;100.00
73103;BME280;61294;65.988;29.172;2024-01-30T06:37:09;97843.66;;;-3.26;100.00
73103;BME280;61294;65.988;29.172;2024-01-30T06:39:35;97840.34;;;-3.23;100.00
73103;BME280;61294;65.988;29.172;2024-01-30T06:42:01;97815.41;;;-3.47;100.00
73103;BME280;61294;65.988;29.172;2024-01-30T06:44:27;97826.78;;;-3.42;100.00
73103;BME280;61294;65.988;29.172;2024-01-30T06:46:53;97863.88;;;-3.37;100.00
73103;BME280;61294;65.988;29.172;2024-01-30T06:49:19;97847.66;;;-3.34;100.00
73103;BME280;61294;65.988;29.172;2024-01-30T06:51:47;97857.41;;;-3.25;100.00
73103;BME280;61294;65.988;29.172;2024-01-30T06:54:13;97858.16;;;-3.28;100.00
73103;BME280;61294;65.988;29.172;2024-01-30T06:56:39;97853.22;;;-3.23;100.00
73103;BME280;61294;65.988;29.172;2024-01-30T06:59:04;97859.22;;;-3.23;100.00
73103;BME280;61294;65.988;29.172;2024-01-30T07:01:30;97867.78;;;-3.24;100.00
73103;BME280;61294;65.988;29.172;2024-01-30T07:03:57;97871.41;;;-3.19;100.00
73103;BME280;61294;65.988;29.172;2024-01-30T07:06:22;97871.34;;;-3.20;100.00
73103;BME280;61294;65.988;29.172;2024-01-30T07:08:51;97850.34;;;-3.31;100.00
73103;BME280;61294;65.988;29.172;2024-01-30T07:11:21;97864.44;;;-3.21;100.00
73103;BME280;61294;65.988;29.172;2024-01-30T07:13:48;97871.72;;;-3.09;100.00
73103;BME280;61294;65.988;29.172;2024-01-30T07:16:15;97891.59;;;-3.07;100.00
73103;BME280;61294;65.988;29.172;2024-01-30T07:18:41;97876.41;;;-3.23;100.00
73103;BME280;61294;65.988;29.172;2024-01-30T07:21:07;97887.19;;;-3.09;100.00
73103;BME280;61294;65.988;29.172;2024-01-30T07:23:32;97898.19;;;-3.14;100.00
73103;BME280;61294;65.988;29.172;2024-01-30T07:26:01;97902.78;;;-3.06;100.00
73103;BME280;61294;65.988;29.172;2024-01-30T07:28:26;97909.78;;;-3.02;100.00
73103;BME280;61294;65.988;29.172;2024-01-30T07:30:52;97902.41;;;-2.93;100.00
73103;BME280;61294;65.988;29.172;2024-01-30T07:33:18;97913.53;;;-2.94;100.00
73103;BME280;61294;65.988;29.172;2024-01-30T07:35:45;97880.91;;;-3.18;100.00
73103;BME280;61294;65.988;29.172;2024-01-30T07:38:11;97922.16;;;-2.93;100.00
73103;BME280;61294;65.988;29.172;2024-01-30T07:40:37;97929.09;;;-2.91;100.00
73103;BME280;61294;65.988;29.172;2024-01-30T07:43:03;97917.81;;;-2.95;100.00
73103;BME280;61294;65.988;29.172;2024-01-30T07:45:29;97922.00;;;-2.97;100.00
73103;BME280;61294;65.988;29.172;2024-01-30T07:47:59;97927.16;;;-2.97;100.00
73103;BME280;61294;65.988;29.172;2024-01-30T07:50:27;97918.03;;;-2.88;100.00
73103;BME280;61294;65.988;29.172;2024-01-30T07:52:55;97916.56;;;-2.82;100.00
73103;BME280;61294;65.988;29.172;2024-01-30T07:55:22;97920.25;;;-2.75;100.00
73103;BME280;61294;65.988;29.172;2024-01-30T07:57:52;97920.25;;;-2.75;100.00
73103;BME280;61294;65.988;29.172;2024-01-30T08:00:22;97915.91;;;-2.76;100.00
73103;BME280;61294;65.988;29.172;2024-01-30T08:02:48;97939.91;;;-2.77;100.00
73103;BME280;61294;65.988;29.172;2024-01-30T08:05:14;97939.19;;;-2.73;100.00
73103;BME280;61294;65.988;29.172;2024-01-30T08:07:43;97937.34;;;-2.77;100.00
73103;BME280;61294;65.988;29.172;2024-01-30T08:10:11;97948.91;;;-2.66;100.00
73103;BME280;61294;65.988;29.172;2024-01-30T08:12:38;97911.09;;;-2.65;100.00
73103;BME280;61294;65.988;29.172;2024-01-30T08:15:04;97929.50;;;-2.56;100.00
73103;BME280;61294;65.988;29.172;2024-01-30T08:17:30;97952.69;;;-2.56;100.00
73103;BME280;61294;65.988;29.172;2024-01-30T08:19:56;97939.72;;;-2.59;100.00
73103;BME280;61294;65.988;29.172;2024-01-30T08:22:22;97939.31;;;-2.46;100.00
73103;BME280;61294;65.988;29.172;2024-01-30T08:24:48;97929.94;;;-2.44;100.00
73103;BME280;61294;65.988;29.172;2024-01-30T08:27:13;97928.84;;;-2.50;100.00
73103;BME280;61294;65.988;29.172;2024-01-30T08:29:39;97946.03;;;-2.51;100.00
73103;BME280;61294;65.988;29.172;2024-01-30T08:32:06;97935.97;;;-2.43;100.00
73103;BME280;61294;65.988;29.172;2024-01-30T08:34:32;97937.38;;;-2.51;100.00
73103;BME280;61294;65.988;29.172;2024-01-30T08:36:57;97947.03;;;-2.46;100.00
73103;BME280;61294;65.988;29.172;2024-01-30T08:39:23;97946.28;;;-2.43;100.00
73103;BME280;61294;65.988;29.172;2024-01-30T08:41:49;97945.72;;;-2.34;100.00
73103;BME280;61294;65.988;29.172;2024-01-30T08:44:15;97944.09;;;-2.32;100.00
73103;BME280;61294;65.988;29.172;2024-01-30T08:46:43;97950.81;;;-2.36;100.00
73103;BME280;61294;65.988;29.172;2024-01-30T08:49:11;97962.00;;;-2.35;100.00
73103;BME280;61294;65.988;29.172;2024-01-30T08:51:39;97969.41;;;-2.20;100.00
73103;BME280;61294;65.988;29.172;2024-01-30T08:54:05;97967.75;;;-2.18;100.00
73103;BME280;61294;65.988;29.172;2024-01-30T08:56:31;97977.50;;;-2.10;100.00
73103;BME280;61294;65.988;29.172;2024-01-30T08:58:56;97979.31;;;-2.07;100.00
73103;BME280;61294;65.988;29.172;2024-01-30T09:01:22;97979.06;;;-2.15;100.00
73103;BME280;61294;65.988;29.172;2024-01-30T09:03:48;97970.19;;;-2.23;100.00
73103;BME280;61294;65.988;29.172;2024-01-30T09:06:14;97973.78;;;-2.19;100.00
73103;BME280;61294;65.988;29.172;2024-01-30T09:08:39;97960.00;;;-2.18;100.00
73103;BME280;61294;65.988;29.172;2024-01-30T09:11:09;97956.66;;;-2.16;100.00
73103;BME280;61294;65.988;29.172;2024-01-30T09:13:36;97962.03;;;-2.10;100.00
73103;BME280;61294;65.988;29.172;2024-01-30T09:16:02;97953.94;;;-2.20;100.00
73103;BME280;61294;65.988;29.172;2024-01-30T09:18:28;97977.06;;;-1.98;100.00
73103;BME280;61294;65.988;29.172;2024-01-30T09:20:54;97979.28;;;-2.09;100.00
73103;BME280;61294;65.988;29.172;2024-01-30T09:23:19;97944.94;;;-2.32;100.00
73103;BME280;61294;65.988;29.172;2024-01-30T09:25:45;97964.31;;;-2.19;100.00
73103;BME280;61294;65.988;29.172;2024-01-30T09:28:11;97967.84;;;-2.15;100.00
73103;BME280;61294;65.988;29.172;2024-01-30T09:30:37;97954.28;;;-2.10;100.00
73103;BME280;61294;65.988;29.172;2024-01-30T09:33:03;97923.31;;;-2.35;100.00
73103;BME280;61294;65.988;29.172;2024-01-30T09:35:28;97961.22;;;-1.83;100.00
73103;BME280;61294;65.988;29.172;2024-01-30T09:37:55;97962.34;;;-1.47;100.00
73103;BME280;61294;65.988;29.172;2024-01-30T09:40:22;97955.19;;;-1.29;100.00
73103;BME280;61294;65.988;29.172;2024-01-30T09:42:50;97953.56;;;-1.25;100.00
73103;BME280;61294;65.988;29.172;2024-01-30T09:45:17;97945.75;;;-1.28;100.00
73103;BME280;61294;65.988;29.172;2024-01-30T09:47:44;97954.50;;;-1.23;100.00
73103;BME280;61294;65.988;29.172;2024-01-30T09:50:12;97959.63;;;-1.25;100.00
73103;BME280;61294;65.988;29.172;2024-01-30T09:52:39;97958.16;;;-1.16;100.00
73103;BME280;61294;65.988;29.172;2024-01-30T09:55:06;97942.28;;;-0.98;100.00
73103;BME280;61294;65.988;29.172;2024-01-30T09:57:33;97961.13;;;-1.04;100.00
73103;BME280;61294;65.988;29.172;2024-01-30T09:59:59;97937.59;;;-1.12;100.00
73103;BME280;61294;65.988;29.172;2024-01-30T10:02:25;97962.09;;;-0.99;100.00
73103;BME280;61294;65.988;29.172;2024-01-30T10:04:52;97972.75;;;-0.90;100.00
73103;BME280;61294;65.988;29.172;2024-01-30T10:07:18;97968.59;;;-0.83;100.00
73103;BME280;61294;65.988;29.172;2024-01-30T10:09:45;97959.59;;;-0.96;100.00
73103;BME280;61294;65.988;29.172;2024-01-30T10:12:11;97983.78;;;-0.95;100.00
73103;BME280;61294;65.988;29.172;2024-01-30T10:14:42;97951.72;;;-1.00;100.00
73103;BME280;61294;65.988;29.172;2024-01-30T10:17:09;97960.22;;;-1.05;100.00
73103;BME280;61294;65.988;29.172;2024-01-30T10:19:36;97960.31;;;-1.01;100.00
73103;BME280;61294;65.988;29.172;2024-01-30T10:22:02;97921.69;;;-0.97;100.00
73103;BME280;61294;65.988;29.172;2024-01-30T10:24:28;97949.31;;;-0.94;100.00
73103;BME280;61294;65.988;29.172;2024-01-30T10:26:57;97946.63;;;-0.97;100.00
73103;BME280;61294;65.988;29.172;2024-01-30T10:29:24;97945.72;;;-0.99;100.00
73103;BME280;61294;65.988;29.172;2024-01-30T10:32:00;97948.38;;;-0.98;100.00
73103;BME280;61294;65.988;29.172;2024-01-30T10:34:26;97943.59;;;-1.13;100.00
73103;BME280;61294;65.988;29.172;2024-01-30T10:37:13;97926.38;;;-1.41;100.00
73103;BME280;61294;65.988;29.172;2024-01-30T10:39:42;97931.78;;;-1.33;100.00
73103;BME280;61294;65.988;29.172;2024-01-30T10:42:12;97929.72;;;-1.45;100.00
73103;BME280;61294;65.988;29.172;2024-01-30T10:47:26;97931.31;;;-1.49;100.00
73103;BME280;61294;65.988;29.172;2024-01-30T10:49:54;97945.25;;;-1.44;100.00
73103;BME280;61294;65.988;29.172;2024-01-30T10:52:21;97958.84;;;-1.49;100.00
73103;BME280;61294;65.988;29.172;2024-01-30T10:54:50;97942.47;;;-1.50;100.00
73103;BME280;61294;65.988;29.172;2024-01-30T10:57:16;97927.78;;;-1.52;100.00
73103;BME280;61294;65.988;29.172;2024-01-30T10:59:43;97946.63;;;-1.55;100.00
73103;BME280;61294;65.988;29.172;2024-01-30T11:02:10;97943.94;;;-1.58;100.00
73103;BME280;61294;65.988;29.172;2024-01-30T11:04:43;97927.41;;;-1.63;100.00
73103;BME280;61294;65.988;29.172;2024-01-30T11:07:18;97952.03;;;-1.47;100.00
73103;BME280;61294;65.988;29.172;2024-01-30T11:10:05;97931.09;;;-1.57;100.00
73103;BME280;61294;65.988;29.172;2024-01-30T11:12:33;97943.50;;;-1.45;100.00
73103;BME280;61294;65.988;29.172;2024-01-30T11:15:07;97943.09;;;-1.57;100.00
73103;BME280;61294;65.988;29.172;2024-01-30T11:17:51;97929.09;;;-1.65;100.00
73103;BME280;61294;65.988;29.172;2024-01-30T11:20:22;97949.44;;;-1.47;100.00
73103;BME280;61294;65.988;29.172;2024-01-30T11:22:51;97964.84;;;-1.50;100.00
73103;BME280;61294;65.988;29.172;2024-01-30T11:25:20;97956.28;;;-1.49;100.00
73103;BME280;61294;65.988;29.172;2024-01-30T11:27:49;97937.84;;;-1.60;100.00
73103;BME280;61294;65.988;29.172;2024-01-30T11:30:23;97945.03;;;-1.50;100.00
73103;BME280;61294;65.988;29.172;2024-01-30T11:33:03;97950.34;;;-1.47;100.00
73103;BME280;61294;65.988;29.172;2024-01-30T11:35:34;97929.47;;;-1.53;100.00
73103;BME280;61294;65.988;29.172;2024-01-30T11:38:01;97945.72;;;-1.56;100.00
73103;BME280;61294;65.988;29.172;2024-01-30T11:40:29;97935.53;;;-1.52;100.00
73103;BME280;61294;65.988;29.172;2024-01-30T11:42:56;97946.41;;;-1.61;100.00
73103;BME280;61294;65.988;29.172;2024-01-30T11:45:23;97947.53;;;-1.53;100.00
73103;BME280;61294;65.988;29.172;2024-01-30T11:47:49;97940.38;;;-1.62;100.00
73103;BME280;61294;65.988;29.172;2024-01-30T11:50:16;97949.84;;;-1.62;100.00
73103;BME280;61294;65.988;29.172;2024-01-30T11:52:42;97945.59;;;-1.60;100.00
73103;BME280;61294;65.988;29.172;2024-01-30T11:55:09;97921.22;;;-1.68;100.00
73103;BME280;61294;65.988;29.172;2024-01-30T11:57:35;97949.84;;;-1.62;100.00
73103;BME280;61294;65.988;29.172;2024-01-30T12:00:03;97949.88;;;-1.61;100.00
73103;BME280;61294;65.988;29.172;2024-01-30T12:02:39;97933.34;;;-1.66;100.00
73103;BME280;61294;65.988;29.172;2024-01-30T12:05:06;97953.28;;;-1.62;100.00
73103;BME280;61294;65.988;29.172;2024-01-30T12:07:33;97946.03;;;-1.74;100.00
73103;BME280;61294;65.988;29.172;2024-01-30T12:09:59;97969.66;;;-1.61;100.00
73103;BME280;61294;65.988;29.172;2024-01-30T12:12:29;97959.50;;;-1.57;100.00
73103;BME280;61294;65.988;29.172;2024-01-30T12:14:56;97936.53;;;-1.75;100.00
73103;BME280;61294;65.988;29.172;2024-01-30T12:17:32;97960.00;;;-1.67;100.00
73103;BME280;61294;65.988;29.172;2024-01-30T12:20:19;97971.69;;;-1.52;100.00
73103;BME280;61294;65.988;29.172;2024-01-30T12:22:48;97982.63;;;-1.60;100.00
73103;BME280;61294;65.988;29.172;2024-01-30T12:25:15;97959.84;;;-1.71;100.00
73103;BME280;61294;65.988;29.172;2024-01-30T12:27:46;97948.56;;;-1.75;100.00
73103;BME280;61294;65.988;29.172;2024-01-30T12:30:16;97952.16;;;-1.70;100.00
73103;BME280;61294;65.988;29.172;2024-01-30T12:32:44;97965.38;;;-1.61;100.00
73103;BME280;61294;65.988;29.172;2024-01-30T12:35:11;97956.75;;;-1.61;100.00
73103;BME280;61294;65.988;29.172;2024-01-30T12:37:38;97945.25;;;-1.71;100.00
73103;BME280;61294;65.988;29.172;2024-01-30T12:40:04;97945.25;;;-1.71;100.00
73103;BME280;61294;65.988;29.172;2024-01-30T12:42:31;97946.19;;;-1.69;100.00